sensor_id;sensor_type;location;lat;lon;timestamp;P1;durP1;ratioP1;P2;durP2;ratioP2
65230;SDS011;51813;40.666;16.602;2024-03-02T00:01:26;6.55;;;2.35;;
65230;SDS011;51813;40.666;16.602;2024-03-02T00:03:52;5.70;;;1.67;;
65230;SDS011;51813;40.666;16.602;2024-03-02T00:06:19;4.50;;;1.45;;
65230;SDS011;51813;40.666;16.602;2024-03-02T00:08:46;8.18;;;2.22;;
65230;SDS011;51813;40.666;16.602;2024-03-02T00:11:12;8.32;;;1.60;;
65230;SDS011;51813;40.666;16.602;2024-03-02T00:13:40;6.55;;;1.50;;
65230;SDS011;51813;40.666;16.602;2024-03-02T00:16:06;5.13;;;1.40;;
65230;SDS011;51813;40.666;16.602;2024-03-02T00:18:32;4.72;;;1.85;;
65230;SDS011;51813;40.666;16.602;2024-03-02T00:21:00;4.85;;;1.70;;
65230;SDS011;51813;40.666;16.602;2024-03-02T00:23:29;5.00;;;1.48;;
65230;SDS011;51813;40.666;16.602;2024-03-02T00:25:56;4.63;;;1.60;;
65230;SDS011;51813;40.666;16.602;2024-03-02T00:28:26;4.10;;;1.30;;
65230;SDS011;51813;40.666;16.602;2024-03-02T00:30:59;4.57;;;2.03;;
65230;SDS011;51813;40.666;16.602;2024-03-02T00:33:28;4.97;;;1.73;;
65230;SDS011;51813;40.666;16.602;2024-03-02T00:35:57;6.65;;;1.98;;
65230;SDS011;51813;40.666;16.602;2024-03-02T00:38:24;4.15;;;1.70;;
65230;SDS011;51813;40.666;16.602;2024-03-02T00:40:49;3.13;;;1.60;;
65230;SDS011;51813;40.666;16.602;2024-03-02T00:46:02;6.65;;;1.70;;
65230;SDS011;51813;40.666;16.602;2024-03-02T00:48:28;3.42;;;1.40;;
65230;SDS011;51813;40.666;16.602;2024-03-02T00:50:56;3.17;;;1.20;;
65230;SDS011;51813;40.666;16.602;2024-03-02T00:53:22;3.55;;;1.05;;
65230;SDS011;51813;40.666;16.602;2024-03-02T00:55:51;3.60;;;1.40;;
65230;SDS011;51813;40.666;16.602;2024-03-02T00:58:17;3.17;;;1.20;;
65230;SDS011;51813;40.666;16.602;2024-03-02T01:00:43;2.80;;;1.20;;
65230;SDS011;51813;40.666;16.602;2024-03-02T01:03:08;2.60;;;0.98;;
65230;SDS011;51813;40.666;16.602;2024-03-02T01:05:35;3.00;;;1.00;;
65230;SDS011;51813;40.666;16.602;2024-03-02T01:08:01;2.88;;;1.23;;
65230;SDS011;51813;40.666;16.602;2024-03-02T01:10:27;3.15;;;1.27;;
65230;SDS011;51813;40.666;16.602;2024-03-02T01:12:53;2.60;;;1.08;;
65230;SDS011;51813;40.666;16.602;2024-03-02T01:15:19;1.65;;;0.90;;
65230;SDS011;51813;40.666;16.602;2024-03-02T01:17:44;3.33;;;1.02;;
65230;SDS011;51813;40.666;16.602;2024-03-02T01:20:10;2.70;;;1.30;;
65230;SDS011;51813;40.666;16.602;2024-03-02T01:22:36;2.88;;;1.10;;
65230;SDS011;51813;40.666;16.602;2024-03-02T01:25:02;3.13;;;1.00;;
65230;SDS011;51813;40.666;16.602;2024-03-02T01:27:28;2.55;;;1.05;;
65230;SDS011;51813;40.666;16.602;2024-03-02T01:29:54;2.13;;;1.00;;
65230;SDS011;51813;40.666;16.602;2024-03-02T01:32:19;2.83;;;1.27;;
65230;SDS011;51813;40.666;16.602;2024-03-02T01:34:45;1.65;;;0.90;;
65230;SDS011;51813;40.666;16.602;2024-03-02T01:37:11;2.60;;;0.98;;
65230;SDS011;51813;40.666;16.602;2024-03-02T01:39:36;2.10;;;1.10;;
65230;SDS011;51813;40.666;16.602;2024-03-02T01:42:02;2.95;;;1.20;;
65230;SDS011;51813;40.666;16.602;2024-03-02T01:44:28;2.42;;;0.98;;
65230;SDS011;51813;40.666;16.602;2024-03-02T01:46:54;2.88;;;1.20;;
65230;SDS011;51813;40.666;16.602;2024-03-02T01:49:19;3.53;;;1.63;;
65230;SDS011;51813;40.666;16.602;2024-03-02T01:51:45;2.20;;;1.02;;
65230;SDS011;51813;40.666;16.602;2024-03-02T01:54:11;2.47;;;1.00;;
65230;SDS011;51813;40.666;16.602;2024-03-02T01:56:37;2.53;;;1.00;;
65230;SDS011;51813;40.666;16.602;2024-03-02T01:59:02;3.50;;;1.30;;
65230;SDS011;51813;40.666;16.602;2024-03-02T02:01:28;2.47;;;1.33;;
65230;SDS011;51813;40.666;16.602;2024-03-02T02:03:54;2.63;;;1.35;;
65230;SDS011;51813;40.666;16.602;2024-03-02T02:06:20;2.97;;;1.40;;
65230;SDS011;51813;40.666;16.602;2024-03-02T02:08:46;2.15;;;1.10;;
65230;SDS011;51813;40.666;16.602;2024-03-02T02:11:14;3.55;;;1.60;;
65230;SDS011;51813;40.666;16.602;2024-03-02T02:13:41;2.38;;;1.17;;
65230;SDS011;51813;40.666;16.602;2024-03-02T02:16:07;2.20;;;1.10;;
65230;SDS011;51813;40.666;16.602;2024-03-02T02:18:33;2.08;;;1.20;;
65230;SDS011;51813;40.666;16.602;2024-03-02T02:21:00;2.95;;;1.40;;
65230;SDS011;51813;40.666;16.602;2024-03-02T02:23:25;2.85;;;1.50;;
65230;SDS011;51813;40.666;16.602;2024-03-02T02:25:51;2.78;;;1.40;;
65230;SDS011;51813;40.666;16.602;2024-03-02T02:28:17;2.80;;;1.38;;
65230;SDS011;51813;40.666;16.602;2024-03-02T02:30:42;3.10;;;1.30;;
65230;SDS011;51813;40.666;16.602;2024-03-02T02:33:08;3.47;;;1.52;;
65230;SDS011;51813;40.666;16.602;2024-03-02T02:35:34;2.50;;;1.20;;
65230;SDS011;51813;40.666;16.602;2024-03-02T02:38:00;2.70;;;1.40;;
65230;SDS011;51813;40.666;16.602;2024-03-02T02:40:26;4.22;;;1.50;;
65230;SDS011;51813;40.666;16.602;2024-03-02T02:42:55;2.20;;;1.45;;
65230;SDS011;51813;40.666;16.602;2024-03-02T02:45:22;2.35;;;1.50;;
65230;SDS011;51813;40.666;16.602;2024-03-02T02:47:47;3.00;;;1.70;;
65230;SDS011;51813;40.666;16.602;2024-03-02T02:50:13;3.40;;;1.40;;
65230;SDS011;51813;40.666;16.602;2024-03-02T02:52:39;2.30;;;1.23;;
65230;SDS011;51813;40.666;16.602;2024-03-02T02:55:07;2.92;;;1.60;;
65230;SDS011;51813;40.666;16.602;2024-03-02T02:57:35;3.05;;;1.60;;
65230;SDS011;51813;40.666;16.602;2024-03-02T03:00:03;3.55;;;1.35;;
65230;SDS011;51813;40.666;16.602;2024-03-02T03:02:35;2.47;;;1.30;;
65230;SDS011;51813;40.666;16.602;2024-03-02T03:05:04;3.08;;;1.20;;
65230;SDS011;51813;40.666;16.602;2024-03-02T03:07:31;2.08;;;1.20;;
65230;SDS011;51813;40.666;16.602;2024-03-02T03:09:58;2.67;;;1.17;;
65230;SDS011;51813;40.666;16.602;2024-03-02T03:12:24;2.65;;;1.10;;
65230;SDS011;51813;40.666;16.602;2024-03-02T03:14:49;2.38;;;1.15;;
65230;SDS011;51813;40.666;16.602;2024-03-02T03:17:15;2.70;;;1.30;;
65230;SDS011;51813;40.666;16.602;2024-03-02T03:19:40;2.55;;;1.25;;
65230;SDS011;51813;40.666;16.602;2024-03-02T03:22:06;2.30;;;1.30;;
65230;SDS011;51813;40.666;16.602;2024-03-02T03:24:32;2.47;;;1.40;;
65230;SDS011;51813;40.666;16.602;2024-03-02T03:26:58;2.55;;;1.55;;
65230;SDS011;51813;40.666;16.602;2024-03-02T03:29:23;2.42;;;1.20;;
65230;SDS011;51813;40.666;16.602;2024-03-02T03:31:49;3.67;;;1.60;;
65230;SDS011;51813;40.666;16.602;2024-03-02T03:34:15;4.28;;;1.73;;
65230;SDS011;51813;40.666;16.602;2024-03-02T03:36:41;3.65;;;1.95;;
65230;SDS011;51813;40.666;16.602;2024-03-02T03:39:07;2.85;;;1.58;;
65230;SDS011;51813;40.666;16.602;2024-03-02T03:41:33;3.70;;;1.98;;
65230;SDS011;51813;40.666;16.602;2024-03-02T03:43:58;3.75;;;1.90;;
65230;SDS011;51813;40.666;16.602;2024-03-02T03:46:24;3.03;;;1.60;;
65230;SDS011;51813;40.666;16.602;2024-03-02T03:48:49;3.25;;;1.50;;
65230;SDS011;51813;40.666;16.602;2024-03-02T03:51:15;3.70;;;1.50;;
65230;SDS011;51813;40.666;16.602;2024-03-02T03:53:41;2.67;;;1.60;;
65230;SDS011;51813;40.666;16.602;2024-03-02T03:56:07;2.55;;;1.42;;
65230;SDS011;51813;40.666;16.602;2024-03-02T03:58:32;1.83;;;1.02;;
65230;SDS011;51813;40.666;16.602;2024-03-02T04:00:58;2.35;;;1.40;;
65230;SDS011;51813;40.666;16.602;2024-03-02T04:03:24;2.88;;;1.30;;
65230;SDS011;51813;40.666;16.602;2024-03-02T04:05:50;1.58;;;1.00;;
65230;SDS011;51813;40.666;16.602;2024-03-02T04:08:16;3.15;;;1.40;;
65230;SDS011;51813;40.666;16.602;2024-03-02T04:10:42;2.28;;;1.30;;
65230;SDS011;51813;40.666;16.602;2024-03-02T04:13:07;2.15;;;1.08;;
65230;SDS011;51813;40.666;16.602;2024-03-02T04:15:33;2.25;;;1.10;;
65230;SDS011;51813;40.666;16.602;2024-03-02T04:17:59;2.38;;;1.30;;
65230;SDS011;51813;40.666;16.602;2024-03-02T04:20:24;2.47;;;1.27;;
65230;SDS011;51813;40.666;16.602;2024-03-02T04:22:50;2.00;;;1.10;;
65230;SDS011;51813;40.666;16.602;2024-03-02T04:25:16;2.63;;;1.17;;
65230;SDS011;51813;40.666;16.602;2024-03-02T04:27:41;2.45;;;1.30;;
65230;SDS011;51813;40.666;16.602;2024-03-02T04:30:07;2.50;;;1.30;;
65230;SDS011;51813;40.666;16.602;2024-03-02T04:32:33;2.97;;;1.27;;
65230;SDS011;51813;40.666;16.602;2024-03-02T04:34:59;2.67;;;1.27;;
65230;SDS011;51813;40.666;16.602;2024-03-02T04:37:24;2.65;;;1.17;;
65230;SDS011;51813;40.666;16.602;2024-03-02T04:39:50;3.00;;;1.30;;
65230;SDS011;51813;40.666;16.602;2024-03-02T04:42:16;2.78;;;1.17;;
65230;SDS011;51813;40.666;16.602;2024-03-02T04:44:41;3.03;;;1.27;;
65230;SDS011;51813;40.666;16.602;2024-03-02T04:47:07;2.15;;;1.13;;
65230;SDS011;51813;40.666;16.602;2024-03-02T04:49:33;3.65;;;1.50;;
65230;SDS011;51813;40.666;16.602;2024-03-02T04:51:58;3.30;;;1.42;;
65230;SDS011;51813;40.666;16.602;2024-03-02T04:54:24;3.17;;;1.38;;
65230;SDS011;51813;40.666;16.602;2024-03-02T04:56:50;2.45;;;1.10;;
65230;SDS011;51813;40.666;16.602;2024-03-02T04:59:16;3.10;;;1.25;;
65230;SDS011;51813;40.666;16.602;2024-03-02T05:01:43;3.28;;;1.50;;
65230;SDS011;51813;40.666;16.602;2024-03-02T05:04:09;2.58;;;1.55;;
65230;SDS011;51813;40.666;16.602;2024-03-02T05:06:39;3.08;;;1.35;;
65230;SDS011;51813;40.666;16.602;2024-03-02T05:09:06;4.55;;;1.80;;
65230;SDS011;51813;40.666;16.602;2024-03-02T05:11:32;4.03;;;1.45;;
65230;SDS011;51813;40.666;16.602;2024-03-02T05:14:06;2.60;;;1.45;;
65230;SDS011;51813;40.666;16.602;2024-03-02T05:16:35;3.05;;;1.40;;
65230;SDS011;51813;40.666;16.602;2024-03-02T05:19:03;3.28;;;1.52;;
65230;SDS011;51813;40.666;16.602;2024-03-02T05:21:31;3.20;;;1.50;;
65230;SDS011;51813;40.666;16.602;2024-03-02T05:23:57;2.97;;;1.40;;
65230;SDS011;51813;40.666;16.602;2024-03-02T05:26:23;3.28;;;1.60;;
65230;SDS011;51813;40.666;16.602;2024-03-02T05:28:48;2.55;;;1.50;;
65230;SDS011;51813;40.666;16.602;2024-03-02T05:31:15;2.90;;;1.50;;
65230;SDS011;51813;40.666;16.602;2024-03-02T05:33:41;2.70;;;1.40;;
65230;SDS011;51813;40.666;16.602;2024-03-02T05:36:08;2.80;;;1.60;;
65230;SDS011;51813;40.666;16.602;2024-03-02T05:38:37;2.20;;;1.13;;
65230;SDS011;51813;40.666;16.602;2024-03-02T05:41:03;2.88;;;1.27;;
65230;SDS011;51813;40.666;16.602;2024-03-02T05:43:28;3.22;;;1.25;;
65230;SDS011;51813;40.666;16.602;2024-03-02T05:45:54;2.85;;;1.23;;
65230;SDS011;51813;40.666;16.602;2024-03-02T05:48:20;2.97;;;1.30;;
65230;SDS011;51813;40.666;16.602;2024-03-02T05:50:46;2.92;;;1.23;;
65230;SDS011;51813;40.666;16.602;2024-03-02T05:53:11;2.30;;;1.35;;
65230;SDS011;51813;40.666;16.602;2024-03-02T05:55:37;3.13;;;1.27;;
65230;SDS011;51813;40.666;16.602;2024-03-02T05:58:03;5.18;;;1.50;;
65230;SDS011;51813;40.666;16.602;2024-03-02T06:00:31;3.78;;;1.10;;
65230;SDS011;51813;40.666;16.602;2024-03-02T06:02:58;3.15;;;1.70;;
65230;SDS011;51813;40.666;16.602;2024-03-02T06:05:24;3.28;;;1.40;;
65230;SDS011;51813;40.666;16.602;2024-03-02T06:07:50;4.38;;;1.40;;
65230;SDS011;51813;40.666;16.602;2024-03-02T06:10:16;2.35;;;1.30;;
65230;SDS011;51813;40.666;16.602;2024-03-02T06:12:42;3.25;;;1.30;;
65230;SDS011;51813;40.666;16.602;2024-03-02T06:15:08;2.55;;;1.20;;
65230;SDS011;51813;40.666;16.602;2024-03-02T06:17:37;2.90;;;1.23;;
65230;SDS011;51813;40.666;16.602;2024-03-02T06:20:03;3.22;;;1.50;;
65230;SDS011;51813;40.666;16.602;2024-03-02T06:22:29;2.28;;;1.00;;
65230;SDS011;51813;40.666;16.602;2024-03-02T06:24:54;2.97;;;1.40;;
65230;SDS011;51813;40.666;16.602;2024-03-02T06:27:20;2.85;;;1.20;;
65230;SDS011;51813;40.666;16.602;2024-03-02T06:29:46;3.58;;;1.35;;
65230;SDS011;51813;40.666;16.602;2024-03-02T06:32:11;3.58;;;1.30;;
65230;SDS011;51813;40.666;16.602;2024-03-02T06:34:37;2.65;;;1.20;;
65230;SDS011;51813;40.666;16.602;2024-03-02T06:37:03;1.92;;;1.02;;
65230;SDS011;51813;40.666;16.602;2024-03-02T06:39:28;2.55;;;1.13;;
65230;SDS011;51813;40.666;16.602;2024-03-02T06:41:56;2.00;;;1.00;;
65230;SDS011;51813;40.666;16.602;2024-03-02T06:44:21;2.90;;;1.60;;
65230;SDS011;51813;40.666;16.602;2024-03-02T06:46:47;4.47;;;1.40;;
65230;SDS011;51813;40.666;16.602;2024-03-02T06:49:13;3.70;;;1.23;;
65230;SDS011;51813;40.666;16.602;2024-03-02T06:51:38;3.35;;;1.10;;
65230;SDS011;51813;40.666;16.602;2024-03-02T06:54:04;2.75;;;1.40;;
65230;SDS011;51813;40.666;16.602;2024-03-02T06:56:30;3.10;;;1.33;;
65230;SDS011;51813;40.666;16.602;2024-03-02T06:58:58;4.22;;;1.25;;
65230;SDS011;51813;40.666;16.602;2024-03-02T07:01:23;2.70;;;1.48;;
65230;SDS011;51813;40.666;16.602;2024-03-02T07:03:51;2.05;;;1.10;;
65230;SDS011;51813;40.666;16.602;2024-03-02T07:06:17;2.65;;;1.05;;
65230;SDS011;51813;40.666;16.602;2024-03-02T07:08:42;2.85;;;1.15;;
65230;SDS011;51813;40.666;16.602;2024-03-02T07:11:08;3.65;;;1.30;;
65230;SDS011;51813;40.666;16.602;2024-03-02T07:13:34;2.50;;;1.30;;
65230;SDS011;51813;40.666;16.602;2024-03-02T07:16:00;2.65;;;1.30;;
65230;SDS011;51813;40.666;16.602;2024-03-02T07:18:29;2.88;;;1.40;;
65230;SDS011;51813;40.666;16.602;2024-03-02T07:20:56;2.60;;;1.52;;
65230;SDS011;51813;40.666;16.602;2024-03-02T07:23:26;2.80;;;1.20;;
65230;SDS011;51813;40.666;16.602;2024-03-02T07:25:55;2.70;;;1.50;;
65230;SDS011;51813;40.666;16.602;2024-03-02T07:28:24;2.88;;;1.27;;
65230;SDS011;51813;40.666;16.602;2024-03-02T07:31:03;3.65;;;1.75;;
65230;SDS011;51813;40.666;16.602;2024-03-02T07:33:29;3.55;;;1.38;;
65230;SDS011;51813;40.666;16.602;2024-03-02T07:35:55;3.22;;;1.30;;
65230;SDS011;51813;40.666;16.602;2024-03-02T07:38:22;2.38;;;1.30;;
65230;SDS011;51813;40.666;16.602;2024-03-02T07:40:48;2.00;;;1.10;;
65230;SDS011;51813;40.666;16.602;2024-03-02T07:43:18;3.33;;;1.30;;
65230;SDS011;51813;40.666;16.602;2024-03-02T07:45:44;2.35;;;1.10;;
65230;SDS011;51813;40.666;16.602;2024-03-02T07:48:13;2.22;;;1.15;;
65230;SDS011;51813;40.666;16.602;2024-03-02T07:50:39;2.90;;;1.30;;
65230;SDS011;51813;40.666;16.602;2024-03-02T07:53:05;2.67;;;1.23;;
65230;SDS011;51813;40.666;16.602;2024-03-02T07:55:32;3.03;;;1.13;;
65230;SDS011;51813;40.666;16.602;2024-03-02T07:57:58;2.33;;;1.20;;
65230;SDS011;51813;40.666;16.602;2024-03-02T08:00:24;2.28;;;1.13;;
65230;SDS011;51813;40.666;16.602;2024-03-02T08:02:50;2.13;;;1.40;;
65230;SDS011;51813;40.666;16.602;2024-03-02T08:05:17;1.75;;;1.20;;
65230;SDS011;51813;40.666;16.602;2024-03-02T08:07:46;1.92;;;1.10;;
65230;SDS011;51813;40.666;16.602;2024-03-02T08:10:12;2.17;;;1.00;;
65230;SDS011;51813;40.666;16.602;2024-03-02T08:12:38;1.88;;;1.10;;
65230;SDS011;51813;40.666;16.602;2024-03-02T08:15:04;1.70;;;1.00;;
65230;SDS011;51813;40.666;16.602;2024-03-02T08:17:31;1.77;;;1.20;;
65230;SDS011;51813;40.666;16.602;2024-03-02T08:19:56;3.03;;;1.25;;
65230;SDS011;51813;40.666;16.602;2024-03-02T08:22:23;1.98;;;1.10;;
65230;SDS011;51813;40.666;16.602;2024-03-02T08:24:50;2.08;;;1.10;;
65230;SDS011;51813;40.666;16.602;2024-03-02T08:27:16;2.63;;;1.13;;
65230;SDS011;51813;40.666;16.602;2024-03-02T08:29:42;1.88;;;1.02;;
65230;SDS011;51813;40.666;16.602;2024-03-02T08:32:07;2.10;;;1.10;;
65230;SDS011;51813;40.666;16.602;2024-03-02T08:34:33;1.80;;;1.02;;
65230;SDS011;51813;40.666;16.602;2024-03-02T08:37:01;1.95;;;1.10;;
65230;SDS011;51813;40.666;16.602;2024-03-02T08:39:27;2.72;;;1.17;;
65230;SDS011;51813;40.666;16.602;2024-03-02T08:41:53;1.92;;;1.08;;
65230;SDS011;51813;40.666;16.602;2024-03-02T08:44:19;2.22;;;1.20;;
65230;SDS011;51813;40.666;16.602;2024-03-02T08:46:45;2.30;;;1.25;;
65230;SDS011;51813;40.666;16.602;2024-03-02T08:49:11;2.53;;;1.13;;
65230;SDS011;51813;40.666;16.602;2024-03-02T08:51:37;2.42;;;1.20;;
65230;SDS011;51813;40.666;16.602;2024-03-02T08:54:03;3.17;;;1.13;;
65230;SDS011;51813;40.666;16.602;2024-03-02T08:56:29;3.47;;;1.70;;
65230;SDS011;51813;40.666;16.602;2024-03-02T08:58:56;2.35;;;1.10;;
65230;SDS011;51813;40.666;16.602;2024-03-02T09:01:21;2.90;;;1.17;;
65230;SDS011;51813;40.666;16.602;2024-03-02T09:03:47;2.83;;;1.40;;
65230;SDS011;51813;40.666;16.602;2024-03-02T09:06:14;2.53;;;1.30;;
65230;SDS011;51813;40.666;16.602;2024-03-02T09:08:42;3.35;;;1.50;;
65230;SDS011;51813;40.666;16.602;2024-03-02T09:11:08;3.10;;;1.73;;
65230;SDS011;51813;40.666;16.602;2024-03-02T09:13:35;3.22;;;1.75;;
65230;SDS011;51813;40.666;16.602;2024-03-02T09:16:02;4.78;;;1.98;;
65230;SDS011;51813;40.666;16.602;2024-03-02T09:18:29;3.88;;;1.60;;
65230;SDS011;51813;40.666;16.602;2024-03-02T09:20:54;4.03;;;1.80;;
65230;SDS011;51813;40.666;16.602;2024-03-02T09:23:20;4.03;;;1.80;;
65230;SDS011;51813;40.666;16.602;2024-03-02T09:25:46;4.75;;;1.90;;
65230;SDS011;51813;40.666;16.602;2024-03-02T09:28:12;3.20;;;2.00;;
65230;SDS011;51813;40.666;16.602;2024-03-02T09:30:37;6.88;;;2.45;;
65230;SDS011;51813;40.666;16.602;2024-03-02T09:33:03;4.00;;;2.20;;
65230;SDS011;51813;40.666;16.602;2024-03-02T09:35:29;4.75;;;2.40;;
65230;SDS011;51813;40.666;16.602;2024-03-02T09:37:55;5.90;;;2.80;;
65230;SDS011;51813;40.666;16.602;2024-03-02T09:40:23;3.83;;;2.20;;
65230;SDS011;51813;40.666;16.602;2024-03-02T09:42:50;4.30;;;2.30;;
65230;SDS011;51813;40.666;16.602;2024-03-02T09:45:22;4.85;;;2.13;;
65230;SDS011;51813;40.666;16.602;2024-03-02T09:50:14;4.30;;;2.03;;
65230;SDS011;51813;40.666;16.602;2024-03-02T09:52:41;4.25;;;2.30;;
65230;SDS011;51813;40.666;16.602;2024-03-02T09:55:08;3.28;;;1.92;;
65230;SDS011;51813;40.666;16.602;2024-03-02T09:57:34;5.72;;;2.10;;
65230;SDS011;51813;40.666;16.602;2024-03-02T10:00:00;3.60;;;2.30;;
65230;SDS011;51813;40.666;16.602;2024-03-02T10:02:25;3.83;;;1.90;;
65230;SDS011;51813;40.666;16.602;2024-03-02T10:04:51;4.30;;;1.90;;
65230;SDS011;51813;40.666;16.602;2024-03-02T10:07:17;4.43;;;1.70;;
65230;SDS011;51813;40.666;16.602;2024-03-02T10:09:47;4.40;;;1.70;;
65230;SDS011;51813;40.666;16.602;2024-03-02T10:12:14;3.33;;;1.70;;
65230;SDS011;51813;40.666;16.602;2024-03-02T10:14:41;3.67;;;1.77;;
65230;SDS011;51813;40.666;16.602;2024-03-02T10:17:08;2.88;;;1.60;;
65230;SDS011;51813;40.666;16.602;2024-03-02T10:19:35;2.90;;;1.70;;
65230;SDS011;51813;40.666;16.602;2024-03-02T10:22:05;3.15;;;1.40;;
65230;SDS011;51813;40.666;16.602;2024-03-02T10:24:39;2.95;;;1.52;;
65230;SDS011;51813;40.666;16.602;2024-03-02T10:27:06;2.65;;;1.50;;
65230;SDS011;51813;40.666;16.602;2024-03-02T10:29:36;2.80;;;1.33;;
65230;SDS011;51813;40.666;16.602;2024-03-02T10:32:02;2.88;;;1.52;;
65230;SDS011;51813;40.666;16.602;2024-03-02T10:34:29;3.42;;;1.50;;
65230;SDS011;51813;40.666;16.602;2024-03-02T10:36:55;2.85;;;1.20;;
65230;SDS011;51813;40.666;16.602;2024-03-02T10:39:21;2.28;;;1.30;;
65230;SDS011;51813;40.666;16.602;2024-03-02T10:41:49;2.58;;;1.48;;
65230;SDS011;51813;40.666;16.602;2024-03-02T10:44:18;2.75;;;1.38;;
65230;SDS011;51813;40.666;16.602;2024-03-02T10:46:44;2.15;;;1.15;;
65230;SDS011;51813;40.666;16.602;2024-03-02T10:49:11;2.45;;;1.30;;
65230;SDS011;51813;40.666;16.602;2024-03-02T10:51:37;2.53;;;1.15;;
65230;SDS011;51813;40.666;16.602;2024-03-02T10:54:03;2.67;;;1.20;;
65230;SDS011;51813;40.666;16.602;2024-03-02T10:56:33;2.65;;;1.30;;
65230;SDS011;51813;40.666;16.602;2024-03-02T10:59:46;3.67;;;1.23;;
65230;SDS011;51813;40.666;16.602;2024-03-02T11:01:59;1.95;;;1.00;;
65230;SDS011;51813;40.666;16.602;2024-03-02T11:04:26;2.60;;;1.10;;
65230;SDS011;51813;40.666;16.602;2024-03-02T11:07:00;2.08;;;1.10;;
65230;SDS011;51813;40.666;16.602;2024-03-02T11:09:31;1.65;;;0.95;;
65230;SDS011;51813;40.666;16.602;2024-03-02T11:12:02;4.43;;;1.63;;
65230;SDS011;51813;40.666;16.602;2024-03-02T11:14:31;3.63;;;1.77;;
65230;SDS011;51813;40.666;16.602;2024-03-02T11:17:01;1.95;;;1.08;;
65230;SDS011;51813;40.666;16.602;2024-03-02T11:19:28;2.40;;;1.10;;
65230;SDS011;51813;40.666;16.602;2024-03-02T11:21:55;2.95;;;1.33;;
65230;SDS011;51813;40.666;16.602;2024-03-02T11:26:58;2.28;;;1.10;;
65230;SDS011;51813;40.666;16.602;2024-03-02T11:32:03;2.33;;;1.20;;
65230;SDS011;51813;40.666;16.602;2024-03-02T11:34:31;4.40;;;1.35;;
65230;SDS011;51813;40.666;16.602;2024-03-02T11:36:58;2.60;;;1.00;;
65230;SDS011;51813;40.666;16.602;2024-03-02T11:39:26;2.85;;;1.20;;
65230;SDS011;51813;40.666;16.602;2024-03-02T11:41:52;3.17;;;1.10;;
65230;SDS011;51813;40.666;16.602;2024-03-02T11:44:18;2.03;;;1.00;;
65230;SDS011;51813;40.666;16.602;2024-03-02T11:49:39;1.60;;;0.90;;
65230;SDS011;51813;40.666;16.602;2024-03-02T11:52:09;2.22;;;1.02;;
65230;SDS011;51813;40.666;16.602;2024-03-02T11:54:40;2.00;;;0.93;;
65230;SDS011;51813;40.666;16.602;2024-03-02T11:57:11;3.50;;;1.02;;
65230;SDS011;51813;40.666;16.602;2024-03-02T11:59:39;2.17;;;1.20;;
65230;SDS011;51813;40.666;16.602;2024-03-02T12:02:05;2.65;;;1.20;;
65230;SDS011;51813;40.666;16.602;2024-03-02T12:04:31;2.10;;;1.00;;
65230;SDS011;51813;40.666;16.602;2024-03-02T12:06:58;1.90;;;0.90;;
65230;SDS011;51813;40.666;16.602;2024-03-02T12:09:28;2.10;;;1.00;;
65230;SDS011;51813;40.666;16.602;2024-03-02T12:12:01;1.80;;;1.00;;
65230;SDS011;51813;40.666;16.602;2024-03-02T12:14:34;1.80;;;1.00;;
65230;SDS011;51813;40.666;16.602;2024-03-02T12:17:01;2.30;;;1.00;;
65230;SDS011;51813;40.666;16.602;2024-03-02T12:19:28;3.72;;;1.20;;
65230;SDS011;51813;40.666;16.602;2024-03-02T12:21:55;3.15;;;1.17;;
65230;SDS011;51813;40.666;16.602;2024-03-02T12:24:21;3.97;;;1.30;;
65230;SDS011;51813;40.666;16.602;2024-03-02T12:26:49;3.38;;;1.30;;
65230;SDS011;51813;40.666;16.602;2024-03-02T12:29:15;3.70;;;1.13;;
65230;SDS011;51813;40.666;16.602;2024-03-02T12:31:42;3.40;;;1.20;;
65230;SDS011;51813;40.666;16.602;2024-03-02T12:34:11;3.13;;;1.13;;
65230;SDS011;51813;40.666;16.602;2024-03-02T12:36:39;2.78;;;1.17;;
65230;SDS011;51813;40.666;16.602;2024-03-02T12:39:06;2.60;;;1.30;;
65230;SDS011;51813;40.666;16.602;2024-03-02T12:41:38;2.58;;;1.10;;
65230;SDS011;51813;40.666;16.602;2024-03-02T12:44:04;2.65;;;1.00;;
65230;SDS011;51813;40.666;16.602;2024-03-02T12:46:33;1.63;;;0.95;;
65230;SDS011;51813;40.666;16.602;2024-03-02T12:49:10;2.43;;;1.10;;
65230;SDS011;51813;40.666;16.602;2024-03-02T12:51:40;2.78;;;1.10;;
65230;SDS011;51813;40.666;16.602;2024-03-02T12:54:09;2.63;;;1.10;;
65230;SDS011;51813;40.666;16.602;2024-03-02T12:56:36;2.47;;;1.20;;
65230;SDS011;51813;40.666;16.602;2024-03-02T12:59:02;1.75;;;0.95;;
65230;SDS011;51813;40.666;16.602;2024-03-02T13:01:29;1.85;;;0.98;;
65230;SDS011;51813;40.666;16.602;2024-03-02T13:03:54;1.98;;;1.02;;
65230;SDS011;51813;40.666;16.602;2024-03-02T13:06:21;1.88;;;1.10;;
65230;SDS011;51813;40.666;16.602;2024-03-02T13:08:47;2.92;;;1.20;;
65230;SDS011;51813;40.666;16.602;2024-03-02T13:11:13;2.75;;;1.27;;
65230;SDS011;51813;40.666;16.602;2024-03-02T13:13:39;2.60;;;1.17;;
65230;SDS011;51813;40.666;16.602;2024-03-02T13:16:09;2.25;;;1.10;;
65230;SDS011;51813;40.666;16.602;2024-03-02T13:18:35;2.10;;;1.20;;
65230;SDS011;51813;40.666;16.602;2024-03-02T13:21:01;2.42;;;1.20;;
65230;SDS011;51813;40.666;16.602;2024-03-02T13:23:27;2.28;;;1.13;;
65230;SDS011;51813;40.666;16.602;2024-03-02T13:25:55;4.78;;;1.17;;
65230;SDS011;51813;40.666;16.602;2024-03-02T13:28:23;2.13;;;1.15;;
65230;SDS011;51813;40.666;16.602;2024-03-02T13:30:49;1.88;;;1.10;;
65230;SDS011;51813;40.666;16.602;2024-03-02T13:33:14;4.60;;;1.27;;
65230;SDS011;51813;40.666;16.602;2024-03-02T13:35:40;3.17;;;1.42;;
65230;SDS011;51813;40.666;16.602;2024-03-02T13:38:06;2.83;;;1.17;;
65230;SDS011;51813;40.666;16.602;2024-03-02T13:40:31;4.03;;;1.35;;
65230;SDS011;51813;40.666;16.602;2024-03-02T13:43:00;4.63;;;1.30;;
65230;SDS011;51813;40.666;16.602;2024-03-02T13:45:27;2.30;;;1.20;;
65230;SDS011;51813;40.666;16.602;2024-03-02T13:47:53;2.58;;;1.30;;
65230;SDS011;51813;40.666;16.602;2024-03-02T13:50:19;2.70;;;1.20;;
65230;SDS011;51813;40.666;16.602;2024-03-02T13:52:45;2.20;;;1.40;;
65230;SDS011;51813;40.666;16.602;2024-03-02T13:55:11;4.32;;;1.17;;
65230;SDS011;51813;40.666;16.602;2024-03-02T13:57:37;4.47;;;1.40;;
65230;SDS011;51813;40.666;16.602;2024-03-02T14:00:03;1.73;;;1.02;;
65230;SDS011;51813;40.666;16.602;2024-03-02T14:02:35;2.33;;;1.10;;
65230;SDS011;51813;40.666;16.602;2024-03-02T14:05:01;4.25;;;1.20;;
65230;SDS011;51813;40.666;16.602;2024-03-02T14:07:27;3.42;;;1.27;;
65230;SDS011;51813;40.666;16.602;2024-03-02T14:09:52;2.80;;;1.30;;
65230;SDS011;51813;40.666;16.602;2024-03-02T14:12:18;4.28;;;1.33;;
65230;SDS011;51813;40.666;16.602;2024-03-02T14:14:44;3.17;;;1.10;;
65230;SDS011;51813;40.666;16.602;2024-03-02T14:17:09;2.95;;;1.30;;
65230;SDS011;51813;40.666;16.602;2024-03-02T14:19:39;10.53;;;2.13;;
65230;SDS011;51813;40.666;16.602;2024-03-02T14:22:05;5.30;;;1.30;;
65230;SDS011;51813;40.666;16.602;2024-03-02T14:24:31;3.45;;;1.30;;
65230;SDS011;51813;40.666;16.602;2024-03-02T14:26:56;7.82;;;1.58;;
65230;SDS011;51813;40.666;16.602;2024-03-02T14:29:24;4.80;;;1.60;;
65230;SDS011;51813;40.666;16.602;2024-03-02T14:31:50;3.13;;;1.65;;
65230;SDS011;51813;40.666;16.602;2024-03-02T14:34:15;4.45;;;1.50;;
65230;SDS011;51813;40.666;16.602;2024-03-02T14:36:41;2.70;;;1.48;;
65230;SDS011;51813;40.666;16.602;2024-03-02T14:39:09;2.88;;;1.38;;
65230;SDS011;51813;40.666;16.602;2024-03-02T14:41:38;2.60;;;1.20;;
65230;SDS011;51813;40.666;16.602;2024-03-02T14:44:04;2.47;;;1.42;;